Orumieh, Iran
Current Conditions -  °F | °C
As of 5:00 AM on Tuesday 25 Nov 2014 (Local Time) from OITR Reporting Station
Broken Clouds Broken Clouds  
Wind Chill: 37°   Ceiling: 10000
Heat Index: 37°   Visibility: 4mi
Dew Point: 36°   Wind: 0mph
Humidity: 93%   Direction: NA
Pressure: 30.03"   Gusts: NA
Location:  37.53°N, 45.08°E
Report Text: OITR 250200Z 00000KT 7000 FEW035CB SCT040 BKN100 03/02 Q1017
Loading
Personal Weather Stations






























Interactive Weather Map New forecast layout! Learn more

10-Day Weather Forecast

Advertisements
Track Severe Weather on mobile